sensor_id;sensor_type;location;lat;lon;timestamp;pressure;altitude;pressure_sealevel;temperature;humidity
10079;BME280;5078;42.544;22.966;2023-11-18T00:00:34;93181.13;;;5.63;100.00
10079;BME280;5078;42.544;22.966;2023-11-18T00:03:04;93186.88;;;5.43;100.00
10079;BME280;5078;42.544;22.966;2023-11-18T00:05:38;93208.91;;;5.50;100.00
10079;BME280;5078;42.544;22.966;2023-11-18T00:08:04;93212.63;;;5.31;100.00
10079;BME280;5078;42.544;22.966;2023-11-18T00:10:32;93221.91;;;5.59;100.00
10079;BME280;5078;42.544;22.966;2023-11-18T00:13:07;93206.00;;;5.77;100.00
10079;BME280;5078;42.544;22.966;2023-11-18T00:15:34;93200.25;;;5.82;100.00
10079;BME280;5078;42.544;22.966;2023-11-18T00:18:07;93191.16;;;5.52;100.00
10079;BME280;5078;42.544;22.966;2023-11-18T00:20:34;93182.78;;;5.48;100.00
10079;BME280;5078;42.544;22.966;2023-11-18T00:23:01;93188.22;;;5.55;100.00
10079;BME280;5078;42.544;22.966;2023-11-18T00:25:39;93184.03;;;5.19;100.00
10079;BME280;5078;42.544;22.966;2023-11-18T00:28:19;93212.16;;;5.44;100.00
10079;BME280;5078;42.544;22.966;2023-11-18T00:30:51;93209.56;;;5.52;100.00
10079;BME280;5078;42.544;22.966;2023-11-18T00:33:18;93214.19;;;5.58;100.00
10079;BME280;5078;42.544;22.966;2023-11-18T00:35:45;93207.28;;;5.57;100.00
10079;BME280;5078;42.544;22.966;2023-11-18T00:38:12;93198.06;;;5.61;100.00
10079;BME280;5078;42.544;22.966;2023-11-18T00:40:38;93189.03;;;5.55;100.00
10079;BME280;5078;42.544;22.966;2023-11-18T00:43:05;93195.72;;;5.33;100.00
10079;BME280;5078;42.544;22.966;2023-11-18T00:45:35;93187.94;;;5.15;100.00
10079;BME280;5078;42.544;22.966;2023-11-18T00:48:01;93186.03;;;5.34;100.00
10079;BME280;5078;42.544;22.966;2023-11-18T00:50:30;93191.59;;;5.23;100.00
10079;BME280;5078;42.544;22.966;2023-11-18T00:52:58;93197.97;;;5.12;100.00
10079;BME280;5078;42.544;22.966;2023-11-18T00:55:25;93214.13;;;5.33;100.00
10079;BME280;5078;42.544;22.966;2023-11-18T00:57:51;93216.13;;;5.48;100.00
10079;BME280;5078;42.544;22.966;2023-11-18T01:00:18;93224.16;;;5.38;100.00
10079;BME280;5078;42.544;22.966;2023-11-18T01:02:48;93223.63;;;5.26;100.00
10079;BME280;5078;42.544;22.966;2023-11-18T01:05:16;93237.97;;;5.40;100.00
10079;BME280;5078;42.544;22.966;2023-11-18T01:07:43;93246.66;;;5.32;100.00
10079;BME280;5078;42.544;22.966;2023-11-18T01:10:10;93238.66;;;5.08;100.00
10079;BME280;5078;42.544;22.966;2023-11-18T01:12:39;93242.66;;;5.20;100.00
10079;BME280;5078;42.544;22.966;2023-11-18T01:15:06;93240.63;;;5.06;100.00
10079;BME280;5078;42.544;22.966;2023-11-18T01:17:35;93235.91;;;5.09;100.00
10079;BME280;5078;42.544;22.966;2023-11-18T01:20:04;93224.53;;;5.09;100.00
10079;BME280;5078;42.544;22.966;2023-11-18T01:22:35;93249.63;;;4.95;100.00
10079;BME280;5078;42.544;22.966;2023-11-18T01:25:03;93252.16;;;5.13;100.00
10079;BME280;5078;42.544;22.966;2023-11-18T01:27:30;93260.50;;;5.08;100.00
10079;BME280;5078;42.544;22.966;2023-11-18T01:29:59;93252.34;;;5.19;100.00
10079;BME280;5078;42.544;22.966;2023-11-18T01:32:26;93254.81;;;5.21;100.00
10079;BME280;5078;42.544;22.966;2023-11-18T01:34:55;93257.53;;;5.03;100.00
10079;BME280;5078;42.544;22.966;2023-11-18T01:37:23;93254.56;;;4.98;100.00
10079;BME280;5078;42.544;22.966;2023-11-18T01:39:49;93252.38;;;4.93;100.00
10079;BME280;5078;42.544;22.966;2023-11-18T01:42:16;93232.69;;;4.89;100.00
10079;BME280;5078;42.544;22.966;2023-11-18T01:44:43;93239.72;;;4.89;100.00
10079;BME280;5078;42.544;22.966;2023-11-18T01:47:10;93241.41;;;4.98;100.00
10079;BME280;5078;42.544;22.966;2023-11-18T01:49:38;93247.13;;;4.93;100.00
10079;BME280;5078;42.544;22.966;2023-11-18T01:52:06;93238.91;;;4.88;100.00
10079;BME280;5078;42.544;22.966;2023-11-18T01:54:36;93236.56;;;4.77;100.00
10079;BME280;5078;42.544;22.966;2023-11-18T01:57:05;93247.06;;;4.77;100.00
10079;BME280;5078;42.544;22.966;2023-11-18T01:59:34;93255.59;;;4.79;100.00
10079;BME280;5078;42.544;22.966;2023-11-18T02:02:04;93254.31;;;4.83;100.00
10079;BME280;5078;42.544;22.966;2023-11-18T02:04:31;93244.56;;;4.67;100.00
10079;BME280;5078;42.544;22.966;2023-11-18T02:06:58;93253.09;;;4.69;100.00
10079;BME280;5078;42.544;22.966;2023-11-18T02:09:29;93253.66;;;4.55;100.00
10079;BME280;5078;42.544;22.966;2023-11-18T02:12:00;93261.47;;;4.73;100.00
10079;BME280;5078;42.544;22.966;2023-11-18T02:14:32;93237.59;;;4.58;100.00
10079;BME280;5078;42.544;22.966;2023-11-18T02:17:02;93233.78;;;4.52;100.00
10079;BME280;5078;42.544;22.966;2023-11-18T02:19:30;93240.06;;;4.33;100.00
10079;BME280;5078;42.544;22.966;2023-11-18T02:21:58;93251.00;;;4.47;100.00
10079;BME280;5078;42.544;22.966;2023-11-18T02:24:27;93228.69;;;4.51;100.00
10079;BME280;5078;42.544;22.966;2023-11-18T02:26:58;93259.16;;;4.70;100.00
10079;BME280;5078;42.544;22.966;2023-11-18T02:29:26;93262.13;;;4.49;100.00
10079;BME280;5078;42.544;22.966;2023-11-18T02:31:58;93261.72;;;4.62;100.00
10079;BME280;5078;42.544;22.966;2023-11-18T02:34:30;93262.63;;;4.70;100.00
10079;BME280;5078;42.544;22.966;2023-11-18T02:36:58;93244.97;;;4.54;100.00
10079;BME280;5078;42.544;22.966;2023-11-18T02:39:32;93246.38;;;4.49;100.00
10079;BME280;5078;42.544;22.966;2023-11-18T02:42:06;93254.47;;;4.29;100.00
10079;BME280;5078;42.544;22.966;2023-11-18T02:44:35;93251.78;;;4.21;100.00
10079;BME280;5078;42.544;22.966;2023-11-18T02:47:03;93261.97;;;4.06;100.00
10079;BME280;5078;42.544;22.966;2023-11-18T02:49:31;93265.78;;;4.30;100.00
10079;BME280;5078;42.544;22.966;2023-11-18T02:51:58;93274.28;;;4.06;100.00
10079;BME280;5078;42.544;22.966;2023-11-18T02:54:24;93266.31;;;4.33;100.00
10079;BME280;5078;42.544;22.966;2023-11-18T02:56:51;93257.41;;;4.52;100.00
10079;BME280;5078;42.544;22.966;2023-11-18T02:59:20;93252.13;;;4.44;100.00
10079;BME280;5078;42.544;22.966;2023-11-18T03:01:46;93254.56;;;4.46;100.00
10079;BME280;5078;42.544;22.966;2023-11-18T03:04:13;93257.25;;;4.28;100.00
10079;BME280;5078;42.544;22.966;2023-11-18T03:06:40;93267.78;;;3.92;100.00
10079;BME280;5078;42.544;22.966;2023-11-18T03:09:07;93276.59;;;4.09;100.00
10079;BME280;5078;42.544;22.966;2023-11-18T03:11:35;93288.84;;;3.82;100.00
10079;BME280;5078;42.544;22.966;2023-11-18T03:14:03;93277.44;;;4.09;100.00
10079;BME280;5078;42.544;22.966;2023-11-18T03:16:32;93278.09;;;4.11;100.00
10079;BME280;5078;42.544;22.966;2023-11-18T03:18:59;93278.25;;;3.56;100.00
10079;BME280;5078;42.544;22.966;2023-11-18T03:21:26;93283.78;;;3.89;100.00
10079;BME280;5078;42.544;22.966;2023-11-18T03:23:53;93278.72;;;4.05;100.00
10079;BME280;5078;42.544;22.966;2023-11-18T03:26:20;93289.81;;;4.17;100.00
10079;BME280;5078;42.544;22.966;2023-11-18T03:28:46;93299.06;;;4.11;100.00
10079;BME280;5078;42.544;22.966;2023-11-18T03:31:13;93310.41;;;4.12;100.00
10079;BME280;5078;42.544;22.966;2023-11-18T03:33:42;93287.09;;;3.91;100.00
10079;BME280;5078;42.544;22.966;2023-11-18T03:36:09;93320.06;;;3.94;100.00
10079;BME280;5078;42.544;22.966;2023-11-18T03:38:37;93331.94;;;3.52;100.00
10079;BME280;5078;42.544;22.966;2023-11-18T03:41:04;93328.81;;;3.39;100.00
10079;BME280;5078;42.544;22.966;2023-11-18T03:43:30;93332.47;;;3.74;100.00
10079;BME280;5078;42.544;22.966;2023-11-18T03:45:57;93321.81;;;3.85;100.00
10079;BME280;5078;42.544;22.966;2023-11-18T03:48:24;93312.69;;;3.61;100.00
10079;BME280;5078;42.544;22.966;2023-11-18T03:50:52;93323.88;;;3.36;100.00
10079;BME280;5078;42.544;22.966;2023-11-18T03:53:19;93310.38;;;3.31;100.00
10079;BME280;5078;42.544;22.966;2023-11-18T03:55:45;93317.47;;;3.20;100.00
10079;BME280;5078;42.544;22.966;2023-11-18T03:58:12;93307.75;;;3.31;100.00
10079;BME280;5078;42.544;22.966;2023-11-18T04:00:39;93316.22;;;3.24;100.00
10079;BME280;5078;42.544;22.966;2023-11-18T04:03:06;93301.38;;;3.15;100.00
10079;BME280;5078;42.544;22.966;2023-11-18T04:05:33;93315.94;;;3.28;100.00
10079;BME280;5078;42.544;22.966;2023-11-18T04:08:04;93327.84;;;3.12;100.00
10079;BME280;5078;42.544;22.966;2023-11-18T04:10:31;93321.63;;;3.13;100.00
10079;BME280;5078;42.544;22.966;2023-11-18T04:12:58;93323.09;;;3.26;100.00
10079;BME280;5078;42.544;22.966;2023-11-18T04:15:25;93325.28;;;3.30;100.00
10079;BME280;5078;42.544;22.966;2023-11-18T04:17:52;93336.66;;;3.11;100.00
10079;BME280;5078;42.544;22.966;2023-11-18T04:20:19;93352.16;;;3.32;100.00
10079;BME280;5078;42.544;22.966;2023-11-18T04:22:46;93346.19;;;3.40;100.00
10079;BME280;5078;42.544;22.966;2023-11-18T04:25:14;93349.84;;;3.19;100.00
10079;BME280;5078;42.544;22.966;2023-11-18T04:27:41;93354.94;;;3.58;100.00
10079;BME280;5078;42.544;22.966;2023-11-18T04:30:08;93349.94;;;3.65;100.00
10079;BME280;5078;42.544;22.966;2023-11-18T04:32:35;93345.94;;;3.61;100.00
10079;BME280;5078;42.544;22.966;2023-11-18T04:35:01;93348.81;;;3.40;100.00
10079;BME280;5078;42.544;22.966;2023-11-18T04:37:32;93344.31;;;3.60;100.00
10079;BME280;5078;42.544;22.966;2023-11-18T04:40:00;93341.09;;;3.38;100.00
10079;BME280;5078;42.544;22.966;2023-11-18T04:42:28;93342.13;;;3.55;100.00
10079;BME280;5078;42.544;22.966;2023-11-18T04:44:55;93345.25;;;3.31;100.00
10079;BME280;5078;42.544;22.966;2023-11-18T04:47:23;93336.53;;;3.40;100.00
10079;BME280;5078;42.544;22.966;2023-11-18T04:49:50;93335.72;;;3.67;100.00
10079;BME280;5078;42.544;22.966;2023-11-18T04:52:17;93347.00;;;3.68;100.00
10079;BME280;5078;42.544;22.966;2023-11-18T04:54:43;93340.75;;;3.51;100.00
10079;BME280;5078;42.544;22.966;2023-11-18T04:57:13;93348.91;;;3.48;100.00
10079;BME280;5078;42.544;22.966;2023-11-18T04:59:41;93343.22;;;3.80;100.00
10079;BME280;5078;42.544;22.966;2023-11-18T05:02:09;93340.72;;;3.79;100.00
10079;BME280;5078;42.544;22.966;2023-11-18T05:04:36;93337.91;;;3.44;100.00
10079;BME280;5078;42.544;22.966;2023-11-18T05:07:03;93343.66;;;3.20;100.00
10079;BME280;5078;42.544;22.966;2023-11-18T05:09:31;93322.72;;;3.20;100.00
10079;BME280;5078;42.544;22.966;2023-11-18T05:12:00;93322.66;;;3.58;100.00
10079;BME280;5078;42.544;22.966;2023-11-18T05:14:27;93326.06;;;3.40;100.00
10079;BME280;5078;42.544;22.966;2023-11-18T05:16:56;93327.75;;;3.32;100.00
10079;BME280;5078;42.544;22.966;2023-11-18T05:19:22;93337.34;;;3.68;100.00
10079;BME280;5078;42.544;22.966;2023-11-18T05:21:48;93344.81;;;3.63;100.00
10079;BME280;5078;42.544;22.966;2023-11-18T05:24:15;93351.22;;;3.79;100.00
10079;BME280;5078;42.544;22.966;2023-11-18T05:26:42;93348.59;;;3.79;100.00
10079;BME280;5078;42.544;22.966;2023-11-18T05:29:09;93358.41;;;3.77;100.00
10079;BME280;5078;42.544;22.966;2023-11-18T05:31:41;93347.19;;;3.57;100.00
10079;BME280;5078;42.544;22.966;2023-11-18T05:34:09;93338.03;;;3.71;100.00
10079;BME280;5078;42.544;22.966;2023-11-18T05:36:37;93333.66;;;3.06;100.00
10079;BME280;5078;42.544;22.966;2023-11-18T05:39:06;93331.09;;;3.52;100.00
10079;BME280;5078;42.544;22.966;2023-11-18T05:41:36;93335.31;;;3.62;100.00
10079;BME280;5078;42.544;22.966;2023-11-18T05:44:05;93330.53;;;3.30;100.00
10079;BME280;5078;42.544;22.966;2023-11-18T05:46:34;93328.84;;;3.29;100.00
10079;BME280;5078;42.544;22.966;2023-11-18T05:49:02;93313.69;;;3.05;100.00
10079;BME280;5078;42.544;22.966;2023-11-18T05:51:34;93343.97;;;3.17;100.00
10079;BME280;5078;42.544;22.966;2023-11-18T05:54:01;93326.38;;;3.00;100.00
10079;BME280;5078;42.544;22.966;2023-11-18T05:56:27;93332.28;;;3.02;100.00
10079;BME280;5078;42.544;22.966;2023-11-18T05:58:54;93335.59;;;3.59;100.00
10079;BME280;5078;42.544;22.966;2023-11-18T06:01:21;93317.56;;;3.29;100.00
10079;BME280;5078;42.544;22.966;2023-11-18T06:03:48;93348.28;;;3.36;100.00
10079;BME280;5078;42.544;22.966;2023-11-18T06:06:16;93350.91;;;3.36;100.00
10079;BME280;5078;42.544;22.966;2023-11-18T06:08:44;93339.72;;;3.62;100.00
10079;BME280;5078;42.544;22.966;2023-11-18T06:11:14;93358.34;;;3.31;100.00
10079;BME280;5078;42.544;22.966;2023-11-18T06:13:42;93336.97;;;3.36;100.00
10079;BME280;5078;42.544;22.966;2023-11-18T06:16:12;93358.53;;;3.30;100.00
10079;BME280;5078;42.544;22.966;2023-11-18T06:18:41;93359.88;;;3.34;100.00
10079;BME280;5078;42.544;22.966;2023-11-18T06:21:12;93353.34;;;3.48;100.00
10079;BME280;5078;42.544;22.966;2023-11-18T06:23:40;93366.09;;;3.33;100.00
10079;BME280;5078;42.544;22.966;2023-11-18T06:26:08;93378.97;;;3.07;100.00
10079;BME280;5078;42.544;22.966;2023-11-18T06:28:37;93373.00;;;3.24;100.00
10079;BME280;5078;42.544;22.966;2023-11-18T06:31:04;93366.97;;;3.14;100.00
10079;BME280;5078;42.544;22.966;2023-11-18T06:33:36;93365.94;;;3.34;100.00
10079;BME280;5078;42.544;22.966;2023-11-18T06:36:04;93356.09;;;3.09;100.00
10079;BME280;5078;42.544;22.966;2023-11-18T06:38:31;93371.84;;;2.99;100.00
10079;BME280;5078;42.544;22.966;2023-11-18T06:40:59;93381.34;;;3.10;100.00
10079;BME280;5078;42.544;22.966;2023-11-18T06:43:29;93390.72;;;3.02;100.00
10079;BME280;5078;42.544;22.966;2023-11-18T06:46:08;93384.59;;;3.21;100.00
10079;BME280;5078;42.544;22.966;2023-11-18T06:48:37;93385.75;;;2.99;100.00
10079;BME280;5078;42.544;22.966;2023-11-18T06:51:05;93378.38;;;2.85;100.00
10079;BME280;5078;42.544;22.966;2023-11-18T06:53:33;93393.59;;;3.09;100.00
10079;BME280;5078;42.544;22.966;2023-11-18T06:56:00;93406.84;;;3.08;100.00
10079;BME280;5078;42.544;22.966;2023-11-18T06:58:26;93396.66;;;3.05;100.00
10079;BME280;5078;42.544;22.966;2023-11-18T07:00:54;93411.88;;;3.29;100.00
10079;BME280;5078;42.544;22.966;2023-11-18T07:03:21;93426.13;;;3.54;100.00
10079;BME280;5078;42.544;22.966;2023-11-18T07:05:47;93414.59;;;3.37;100.00
10079;BME280;5078;42.544;22.966;2023-11-18T07:08:13;93413.38;;;3.68;100.00
10079;BME280;5078;42.544;22.966;2023-11-18T07:10:40;93395.75;;;3.61;100.00
10079;BME280;5078;42.544;22.966;2023-11-18T07:13:07;93415.81;;;3.80;100.00
10079;BME280;5078;42.544;22.966;2023-11-18T07:15:34;93386.28;;;3.78;100.00
10079;BME280;5078;42.544;22.966;2023-11-18T07:18:02;93405.53;;;3.86;100.00
10079;BME280;5078;42.544;22.966;2023-11-18T07:20:29;93404.50;;;3.42;100.00
10079;BME280;5078;42.544;22.966;2023-11-18T07:22:56;93411.28;;;3.44;100.00
10079;BME280;5078;42.544;22.966;2023-11-18T07:25:23;93404.19;;;3.17;100.00
10079;BME280;5078;42.544;22.966;2023-11-18T07:27:49;93410.38;;;3.26;100.00
10079;BME280;5078;42.544;22.966;2023-11-18T07:30:17;93407.44;;;3.29;100.00
10079;BME280;5078;42.544;22.966;2023-11-18T07:32:43;93414.38;;;3.20;100.00
10079;BME280;5078;42.544;22.966;2023-11-18T07:35:12;93411.91;;;3.09;100.00
10079;BME280;5078;42.544;22.966;2023-11-18T07:37:38;93417.59;;;3.42;100.00
10079;BME280;5078;42.544;22.966;2023-11-18T07:40:06;93409.44;;;3.17;100.00
10079;BME280;5078;42.544;22.966;2023-11-18T07:42:37;93414.34;;;3.30;100.00
10079;BME280;5078;42.544;22.966;2023-11-18T07:45:05;93362.69;;;2.75;100.00
10079;BME280;5078;42.544;22.966;2023-11-18T07:47:42;93423.66;;;3.05;100.00
10079;BME280;5078;42.544;22.966;2023-11-18T07:50:09;93409.25;;;3.29;100.00
10079;BME280;5078;42.544;22.966;2023-11-18T07:52:39;93417.31;;;3.55;100.00
10079;BME280;5078;42.544;22.966;2023-11-18T07:55:06;93415.06;;;3.60;100.00
10079;BME280;5078;42.544;22.966;2023-11-18T07:57:36;93418.59;;;3.68;100.00
10079;BME280;5078;42.544;22.966;2023-11-18T08:00:03;93412.69;;;3.29;100.00
10079;BME280;5078;42.544;22.966;2023-11-18T08:02:34;93412.91;;;3.08;100.00
10079;BME280;5078;42.544;22.966;2023-11-18T08:05:02;93421.00;;;3.24;100.00
10079;BME280;5078;42.544;22.966;2023-11-18T08:07:33;93430.06;;;3.30;100.00
10079;BME280;5078;42.544;22.966;2023-11-18T08:10:02;93432.13;;;3.27;100.00
10079;BME280;5078;42.544;22.966;2023-11-18T08:12:30;93439.22;;;2.97;100.00
10079;BME280;5078;42.544;22.966;2023-11-18T08:14:57;93446.41;;;3.05;100.00
10079;BME280;5078;42.544;22.966;2023-11-18T08:17:24;93441.09;;;3.24;100.00
10079;BME280;5078;42.544;22.966;2023-11-18T08:19:51;93448.00;;;3.35;100.00
10079;BME280;5078;42.544;22.966;2023-11-18T08:22:18;93444.69;;;3.33;100.00
10079;BME280;5078;42.544;22.966;2023-11-18T08:24:48;93443.81;;;3.05;100.00
10079;BME280;5078;42.544;22.966;2023-11-18T08:27:17;93450.78;;;3.23;100.00
10079;BME280;5078;42.544;22.966;2023-11-18T08:29:44;93455.69;;;3.36;100.00
10079;BME280;5078;42.544;22.966;2023-11-18T08:32:14;93454.13;;;3.06;100.00
10079;BME280;5078;42.544;22.966;2023-11-18T08:34:40;93460.56;;;3.21;100.00
10079;BME280;5078;42.544;22.966;2023-11-18T08:37:07;93465.97;;;3.10;100.00
10079;BME280;5078;42.544;22.966;2023-11-18T08:39:34;93442.53;;;2.99;100.00
10079;BME280;5078;42.544;22.966;2023-11-18T08:42:01;93466.50;;;3.04;100.00
10079;BME280;5078;42.544;22.966;2023-11-18T08:44:29;93458.81;;;2.93;100.00
10079;BME280;5078;42.544;22.966;2023-11-18T08:46:57;93467.09;;;2.98;100.00
10079;BME280;5078;42.544;22.966;2023-11-18T08:49:24;93461.03;;;2.88;100.00
10079;BME280;5078;42.544;22.966;2023-11-18T08:51:51;93484.13;;;3.21;100.00
10079;BME280;5078;42.544;22.966;2023-11-18T08:54:21;93462.94;;;3.05;100.00
10079;BME280;5078;42.544;22.966;2023-11-18T08:57:02;93475.31;;;3.22;100.00
10079;BME280;5078;42.544;22.966;2023-11-18T08:59:30;93476.28;;;3.02;100.00
10079;BME280;5078;42.544;22.966;2023-11-18T09:01:58;93472.94;;;3.29;100.00
10079;BME280;5078;42.544;22.966;2023-11-18T09:04:25;93454.91;;;3.16;100.00
10079;BME280;5078;42.544;22.966;2023-11-18T09:06:52;93463.25;;;2.92;100.00
10079;BME280;5078;42.544;22.966;2023-11-18T09:09:19;93461.44;;;3.12;100.00
10079;BME280;5078;42.544;22.966;2023-11-18T09:11:52;93464.28;;;3.29;100.00
10079;BME280;5078;42.544;22.966;2023-11-18T09:14:20;93469.53;;;3.19;100.00
10079;BME280;5078;42.544;22.966;2023-11-18T09:16:48;93474.75;;;3.29;100.00
10079;BME280;5078;42.544;22.966;2023-11-18T09:19:15;93476.25;;;3.31;100.00
10079;BME280;5078;42.544;22.966;2023-11-18T09:21:42;93490.41;;;3.58;100.00
10079;BME280;5078;42.544;22.966;2023-11-18T09:24:10;93488.56;;;3.11;100.00
10079;BME280;5078;42.544;22.966;2023-11-18T09:26:38;93472.41;;;3.26;100.00
10079;BME280;5078;42.544;22.966;2023-11-18T09:29:05;93447.75;;;3.18;100.00
10079;BME280;5078;42.544;22.966;2023-11-18T09:31:34;93472.56;;;3.61;100.00
10079;BME280;5078;42.544;22.966;2023-11-18T09:34:03;93467.84;;;3.75;100.00
10079;BME280;5078;42.544;22.966;2023-11-18T09:36:32;93463.03;;;3.70;100.00
10079;BME280;5078;42.544;22.966;2023-11-18T09:38:59;93465.69;;;3.60;100.00
10079;BME280;5078;42.544;22.966;2023-11-18T09:41:28;93463.16;;;3.68;100.00
10079;BME280;5078;42.544;22.966;2023-11-18T09:43:55;93470.00;;;3.42;100.00
10079;BME280;5078;42.544;22.966;2023-11-18T09:46:28;93468.03;;;3.63;100.00
10079;BME280;5078;42.544;22.966;2023-11-18T09:49:10;93467.53;;;3.50;100.00
10079;BME280;5078;42.544;22.966;2023-11-18T09:51:42;93451.34;;;3.64;100.00
10079;BME280;5078;42.544;22.966;2023-11-18T09:54:18;93463.41;;;3.48;100.00
10079;BME280;5078;42.544;22.966;2023-11-18T09:56:53;93436.13;;;3.31;100.00
10079;BME280;5078;42.544;22.966;2023-11-18T09:59:25;93451.28;;;3.37;100.00
10079;BME280;5078;42.544;22.966;2023-11-18T10:02:03;93457.94;;;3.21;100.00
10079;BME280;5078;42.544;22.966;2023-11-18T10:04:34;93451.84;;;3.31;100.00
10079;BME280;5078;42.544;22.966;2023-11-18T10:07:07;93448.00;;;3.35;100.00
10079;BME280;5078;42.544;22.966;2023-11-18T10:09:35;93441.47;;;3.39;100.00
10079;BME280;5078;42.544;22.966;2023-11-18T10:12:05;93436.59;;;3.54;100.00
10079;BME280;5078;42.544;22.966;2023-11-18T10:14:32;93439.38;;;3.52;100.00
10079;BME280;5078;42.544;22.966;2023-11-18T10:17:03;93440.91;;;3.55;100.00
10079;BME280;5078;42.544;22.966;2023-11-18T10:19:50;93441.91;;;3.72;100.00
10079;BME280;5078;42.544;22.966;2023-11-18T10:22:21;93451.91;;;3.58;100.00
10079;BME280;5078;42.544;22.966;2023-11-18T10:24:49;93410.19;;;3.37;100.00
10079;BME280;5078;42.544;22.966;2023-11-18T10:27:20;93449.69;;;3.91;100.00
10079;BME280;5078;42.544;22.966;2023-11-18T10:29:49;93446.19;;;3.73;100.00
10079;BME280;5078;42.544;22.966;2023-11-18T10:32:17;93410.84;;;3.77;100.00
10079;BME280;5078;42.544;22.966;2023-11-18T10:34:47;93443.50;;;3.92;100.00
10079;BME280;5078;42.544;22.966;2023-11-18T10:37:16;93418.22;;;3.91;100.00
10079;BME280;5078;42.544;22.966;2023-11-18T10:39:46;93442.34;;;4.40;100.00
10079;BME280;5078;42.544;22.966;2023-11-18T10:42:17;93439.28;;;3.99;100.00
10079;BME280;5078;42.544;22.966;2023-11-18T10:44:57;93426.16;;;3.99;100.00
10079;BME280;5078;42.544;22.966;2023-11-18T10:47:24;93413.19;;;3.52;100.00
10079;BME280;5078;42.544;22.966;2023-11-18T10:49:52;93438.16;;;3.74;100.00
10079;BME280;5078;42.544;22.966;2023-11-18T10:52:23;93437.31;;;3.83;100.00
10079;BME280;5078;42.544;22.966;2023-11-18T10:54:51;93445.75;;;3.77;100.00
10079;BME280;5078;42.544;22.966;2023-11-18T10:57:20;93438.16;;;3.74;100.00
10079;BME280;5078;42.544;22.966;2023-11-18T10:59:59;93450.63;;;3.72;100.00
10079;BME280;5078;42.544;22.966;2023-11-18T11:02:30;93444.03;;;3.58;100.00
10079;BME280;5078;42.544;22.966;2023-11-18T11:05:03;93383.91;;;3.19;100.00
10079;BME280;5078;42.544;22.966;2023-11-18T11:07:45;93427.81;;;3.45;100.00
10079;BME280;5078;42.544;22.966;2023-11-18T11:10:14;93437.56;;;3.62;100.00
10079;BME280;5078;42.544;22.966;2023-11-18T11:12:45;93400.00;;;3.62;100.00
10079;BME280;5078;42.544;22.966;2023-11-18T11:15:22;93440.75;;;3.84;100.00
10079;BME280;5078;42.544;22.966;2023-11-18T11:17:52;93425.91;;;3.75;100.00
10079;BME280;5078;42.544;22.966;2023-11-18T11:20:22;93440.31;;;3.61;100.00
10079;BME280;5078;42.544;22.966;2023-11-18T11:23:02;93432.53;;;3.32;100.00
10079;BME280;5078;42.544;22.966;2023-11-18T11:25:41;93435.28;;;3.40;100.00
10079;BME280;5078;42.544;22.966;2023-11-18T11:28:13;93425.31;;;3.53;100.00
10079;BME280;5078;42.544;22.966;2023-11-18T11:30:45;93428.28;;;3.68;100.00
10079;BME280;5078;42.544;22.966;2023-11-18T11:33:23;93434.69;;;3.46;100.00
10079;BME280;5078;42.544;22.966;2023-11-18T11:35:55;93429.09;;;3.68;100.00
10079;BME280;5078;42.544;22.966;2023-11-18T11:38:25;93430.28;;;3.46;100.00
10079;BME280;5078;42.544;22.966;2023-11-18T11:40:54;93444.53;;;3.72;100.00
10079;BME280;5078;42.544;22.966;2023-11-18T11:44:04;93444.34;;;3.55;100.00
10079;BME280;5078;42.544;22.966;2023-11-18T11:46:25;93444.09;;;3.39;100.00
10079;BME280;5078;42.544;22.966;2023-11-18T11:48:54;93373.22;;;3.03;100.00
10079;BME280;5078;42.544;22.966;2023-11-18T11:51:25;93440.91;;;3.55;100.00
10079;BME280;5078;42.544;22.966;2023-11-18T11:54:02;93432.00;;;3.65;100.00
10079;BME280;5078;42.544;22.966;2023-11-18T11:56:41;93431.91;;;3.57;100.00
10079;BME280;5078;42.544;22.966;2023-11-18T11:59:08;93391.06;;;3.27;100.00
10079;BME280;5078;42.544;22.966;2023-11-18T12:01:37;93438.25;;;3.64;100.00
10079;BME280;5078;42.544;22.966;2023-11-18T12:04:08;93448.00;;;3.72;100.00
10079;BME280;5078;42.544;22.966;2023-11-18T12:06:41;93443.91;;;3.60;100.00
10079;BME280;5078;42.544;22.966;2023-11-18T12:09:11;93434.97;;;3.53;100.00
10079;BME280;5078;42.544;22.966;2023-11-18T12:11:45;93454.22;;;3.61;100.00
10079;BME280;5078;42.544;22.966;2023-11-18T12:14:14;93426.00;;;3.55;100.00
10079;BME280;5078;42.544;22.966;2023-11-18T12:17:01;93384.72;;;3.30;100.00
10079;BME280;5078;42.544;22.966;2023-11-18T12:19:34;93447.91;;;3.54;100.00
10079;BME280;5078;42.544;22.966;2023-11-18T12:25:39;93299.81;;;2.95;100.00
10079;BME280;5078;42.544;22.966;2023-11-18T12:28:12;93382.63;;;3.33;100.00
10079;BME280;5078;42.544;22.966;2023-11-18T12:30:42;93429.25;;;3.67;100.00
10079;BME280;5078;42.544;22.966;2023-11-18T12:33:20;93423.13;;;3.76;100.00
10079;BME280;5078;42.544;22.966;2023-11-18T12:43:00;93447.34;;;3.60;100.00
10079;BME280;5078;42.544;22.966;2023-11-18T12:45:49;93434.63;;;3.65;100.00
10079;BME280;5078;42.544;22.966;2023-11-18T12:48:21;93430.28;;;3.46;100.00
10079;BME280;5078;42.544;22.966;2023-11-18T12:50:53;93437.41;;;3.54;100.00
10079;BME280;5078;42.544;22.966;2023-11-18T12:53:23;93448.72;;;3.64;100.00
10079;BME280;5078;42.544;22.966;2023-11-18T12:55:52;93425.00;;;3.56;100.00
10079;BME280;5078;42.544;22.966;2023-11-18T12:58:20;93450.09;;;3.59;100.00
10079;BME280;5078;42.544;22.966;2023-11-18T13:00:48;93448.28;;;3.59;100.00
10079;BME280;5078;42.544;22.966;2023-11-18T13:03:15;93450.13;;;3.49;100.00
10079;BME280;5078;42.544;22.966;2023-11-18T13:05:43;93426.19;;;3.34;100.00
10079;BME280;5078;42.544;22.966;2023-11-18T13:08:11;93452.59;;;3.60;100.00
10079;BME280;5078;42.544;22.966;2023-11-18T13:10:40;93447.78;;;3.83;100.00
10079;BME280;5078;42.544;22.966;2023-11-18T13:13:10;93457.13;;;3.96;100.00
10079;BME280;5078;42.544;22.966;2023-11-18T13:15:41;93415.59;;;3.91;100.00
10079;BME280;5078;42.544;22.966;2023-11-18T13:18:08;93423.47;;;3.91;100.00
10079;BME280;5078;42.544;22.966;2023-11-18T13:20:36;93457.97;;;3.86;100.00